createdAt,value
2023-04-29T00:02:08.261Z,36.69
2023-04-29T00:04:36.281Z,36.66
2023-04-29T00:07:04.238Z,36.83
2023-04-29T00:09:32.462Z,36.76
2023-04-29T00:12:00.465Z,36.40
2023-04-29T00:14:28.297Z,36.55
2023-04-29T00:16:57.270Z,36.70
2023-04-29T00:19:25.210Z,36.67
2023-04-29T00:21:54.651Z,36.63
2023-04-29T00:24:22.437Z,37.00
2023-04-29T00:26:50.341Z,36.50
2023-04-29T00:29:18.717Z,36.67
2023-04-29T00:31:49.574Z,36.76
2023-04-29T00:34:17.382Z,36.73
2023-04-29T00:36:45.211Z,36.78
2023-04-29T00:39:15.299Z,36.56
2023-04-29T00:41:43.823Z,36.62
2023-04-29T00:44:11.657Z,37.17
2023-04-29T00:46:39.517Z,36.95
2023-04-29T00:49:08.334Z,37.10
2023-04-29T00:51:36.323Z,37.34
2023-04-29T00:54:04.652Z,36.96
2023-04-29T00:56:32.795Z,37.43
2023-04-29T00:59:01.058Z,36.83
2023-04-29T01:01:28.898Z,37.19
2023-04-29T01:03:57.534Z,37.51
2023-04-29T01:06:25.692Z,37.39
2023-04-29T01:08:53.522Z,36.78
2023-04-29T01:11:21.490Z,37.29
2023-04-29T01:13:49.310Z,37.04
2023-04-29T01:16:17.362Z,37.20
2023-04-29T01:18:45.617Z,37.07
2023-04-29T01:21:13.439Z,37.54
2023-04-29T01:23:41.296Z,37.33
2023-04-29T01:28:37.211Z,37.41
2023-04-29T01:31:05.087Z,37.55
2023-04-29T01:33:32.938Z,37.61
2023-04-29T01:36:00.793Z,37.31
2023-04-29T01:38:29.711Z,37.79
2023-04-29T01:40:59.254Z,37.54
2023-04-29T01:43:27.291Z,37.53
2023-04-29T01:45:56.185Z,37.20
2023-04-29T01:48:24.000Z,36.99
2023-04-29T01:50:51.857Z,37.71
2023-04-29T01:53:19.672Z,37.50
2023-04-29T01:55:47.476Z,37.88
2023-04-29T01:58:15.275Z,37.40
2023-04-29T02:00:43.097Z,37.84
2023-04-29T02:03:10.936Z,37.65
2023-04-29T02:05:39.633Z,37.92
2023-04-29T02:08:07.904Z,37.86
2023-04-29T02:10:35.703Z,37.51
2023-04-29T02:13:03.526Z,37.21
2023-04-29T02:15:31.433Z,37.98
2023-04-29T02:17:59.222Z,37.61
2023-04-29T02:20:27.099Z,37.50
2023-04-29T02:22:54.876Z,37.75
2023-04-29T02:25:22.746Z,37.42
2023-04-29T02:27:50.585Z,37.88
2023-04-29T02:30:18.713Z,37.77
2023-04-29T02:32:46.578Z,37.88
2023-04-29T02:35:14.535Z,37.81
2023-04-29T02:37:42.467Z,37.59
2023-04-29T02:40:10.244Z,37.99
2023-04-29T02:42:38.066Z,37.49
2023-04-29T02:45:05.873Z,37.58
2023-04-29T02:47:33.692Z,37.90
2023-04-29T02:50:01.504Z,37.65
2023-04-29T02:52:29.428Z,37.97
2023-04-29T02:54:57.274Z,37.59
2023-04-29T02:57:25.363Z,37.85
2023-04-29T02:59:53.369Z,37.89
2023-04-29T03:02:21.566Z,37.93
2023-04-29T03:04:49.583Z,37.66
2023-04-29T03:07:18.192Z,37.60
2023-04-29T03:09:46.048Z,37.73
2023-04-29T03:12:14.153Z,37.86
2023-04-29T03:14:41.920Z,37.93
2023-04-29T03:17:09.753Z,37.67
2023-04-29T03:19:37.583Z,37.92
2023-04-29T03:22:05.490Z,37.85
2023-04-29T03:24:33.777Z,37.93
2023-04-29T03:27:01.597Z,38.37
2023-04-29T03:29:29.519Z,38.00
2023-04-29T03:31:57.626Z,38.27
2023-04-29T03:34:25.490Z,38.58
2023-04-29T03:36:53.650Z,37.90
2023-04-29T03:39:21.521Z,37.86
2023-04-29T03:41:49.915Z,38.14
2023-04-29T03:44:17.706Z,37.63
2023-04-29T03:46:45.835Z,38.15
2023-04-29T03:49:13.693Z,38.48
2023-04-29T03:51:41.521Z,38.32
2023-04-29T03:54:10.016Z,37.90
2023-04-29T03:56:37.831Z,37.82
2023-04-29T03:59:05.796Z,38.45
2023-04-29T04:01:33.663Z,38.23
2023-04-29T04:04:01.660Z,38.00
2023-04-29T04:06:29.584Z,38.16
2023-04-29T04:08:57.417Z,38.19
2023-04-29T04:11:25.459Z,38.33
2023-04-29T04:13:53.690Z,38.52
2023-04-29T04:16:21.624Z,38.25
2023-04-29T04:18:49.572Z,38.50
2023-04-29T04:21:17.376Z,38.51
2023-04-29T04:23:45.195Z,38.42
2023-04-29T04:26:13.008Z,38.62
2023-04-29T04:28:40.821Z,38.58
2023-04-29T04:31:09.017Z,38.88
2023-04-29T04:33:36.892Z,38.25
2023-04-29T04:36:04.865Z,38.03
2023-04-29T04:38:33.160Z,38.22
2023-04-29T04:41:02.175Z,39.06
2023-04-29T04:43:30.041Z,38.90
2023-04-29T04:45:57.940Z,38.32
2023-04-29T04:48:25.807Z,38.06
2023-04-29T04:50:53.836Z,37.14
2023-04-29T04:53:22.651Z,36.08
2023-04-29T04:55:50.587Z,35.61
2023-04-29T04:58:18.558Z,35.29
2023-04-29T05:00:46.798Z,34.37
2023-04-29T05:03:14.944Z,34.27
2023-04-29T05:05:42.958Z,34.01
2023-04-29T05:08:10.955Z,33.72
2023-04-29T05:10:38.776Z,33.12
2023-04-29T05:13:06.600Z,33.78
2023-04-29T05:15:34.670Z,33.66
2023-04-29T05:18:02.507Z,33.45
2023-04-29T05:20:30.392Z,33.69
2023-04-29T05:22:58.394Z,33.75
2023-04-29T05:25:26.191Z,33.83
2023-04-29T05:27:54.618Z,34.06
2023-04-29T05:30:22.501Z,34.13
2023-04-29T05:32:50.476Z,34.36
2023-04-29T05:35:18.419Z,35.03
2023-04-29T05:37:46.286Z,34.96
2023-04-29T05:40:14.198Z,35.86
2023-04-29T05:42:42.720Z,35.72
2023-04-29T05:45:11.080Z,36.09
2023-04-29T05:47:38.940Z,35.87
2023-04-29T05:50:07.155Z,36.34
2023-04-29T05:52:35.060Z,36.44
2023-04-29T05:55:02.910Z,36.90
2023-04-29T05:57:30.716Z,36.66
2023-04-29T06:00:00.035Z,36.43
2023-04-29T06:02:28.318Z,36.38
2023-04-29T06:04:56.984Z,36.70
2023-04-29T06:07:25.203Z,36.63
2023-04-29T06:09:53.744Z,36.94
2023-04-29T06:12:21.844Z,37.22
2023-04-29T06:14:49.631Z,37.11
2023-04-29T06:17:17.544Z,37.03
2023-04-29T06:19:45.485Z,37.56
2023-04-29T06:22:14.923Z,37.68
2023-04-29T06:24:42.771Z,37.77
2023-04-29T06:27:10.998Z,37.68
2023-04-29T06:29:39.657Z,36.87
2023-04-29T06:32:07.547Z,35.83
2023-04-29T06:34:36.230Z,35.99
2023-04-29T06:37:04.813Z,35.94
2023-04-29T06:39:32.983Z,36.15
2023-04-29T06:42:01.999Z,36.42
2023-04-29T06:44:29.867Z,35.94
2023-04-29T06:46:57.787Z,35.80
2023-04-29T06:49:25.602Z,36.13
2023-04-29T06:51:53.548Z,36.24
2023-04-29T06:54:21.538Z,36.27
2023-04-29T06:56:49.491Z,36.32
2023-04-29T06:59:17.498Z,36.47
2023-04-29T07:01:46.581Z,36.52
2023-04-29T07:04:15.723Z,36.17
2023-04-29T07:06:46.959Z,36.32
2023-04-29T07:09:15.140Z,36.68
2023-04-29T07:11:43.083Z,36.31
2023-04-29T07:14:10.899Z,36.62
2023-04-29T07:16:38.787Z,36.61
2023-04-29T07:19:07.051Z,36.49
2023-04-29T07:21:36.585Z,36.66
2023-04-29T07:24:05.090Z,36.57
2023-04-29T07:26:33.278Z,36.51
2023-04-29T07:29:01.232Z,36.55
2023-04-29T07:31:29.648Z,36.66
2023-04-29T07:33:57.716Z,36.63
2023-04-29T07:36:25.539Z,36.75
2023-04-29T07:38:53.686Z,36.74
2023-04-29T07:41:22.484Z,36.80
2023-04-29T07:43:50.384Z,36.70
2023-04-29T07:46:18.452Z,36.70
2023-04-29T07:48:46.480Z,36.30
2023-04-29T07:51:14.456Z,36.65
2023-04-29T07:53:42.268Z,36.31
2023-04-29T07:56:10.086Z,36.43
2023-04-29T07:58:37.939Z,36.20
2023-04-29T08:01:05.724Z,36.18
2023-04-29T08:03:33.910Z,36.56
2023-04-29T08:06:02.342Z,36.58
2023-04-29T08:08:30.489Z,36.92
2023-04-29T08:10:58.399Z,36.65
2023-04-29T08:13:26.218Z,36.60
2023-04-29T08:15:54.106Z,36.85
2023-04-29T08:18:22.714Z,36.76
2023-04-29T08:20:51.268Z,36.82
2023-04-29T08:23:19.061Z,36.56
2023-04-29T08:25:46.899Z,36.53
2023-04-29T08:28:16.165Z,36.44
2023-04-29T08:30:44.022Z,36.63
2023-04-29T08:33:13.073Z,37.24
2023-04-29T08:35:41.375Z,37.20
2023-04-29T08:38:09.305Z,36.96
2023-04-29T08:40:37.301Z,36.79
2023-04-29T08:43:05.316Z,36.89
2023-04-29T08:45:34.038Z,37.34
2023-04-29T08:48:02.318Z,37.08
2023-04-29T08:50:30.229Z,37.44
2023-04-29T08:52:58.034Z,37.32
2023-04-29T08:55:26.392Z,37.48
2023-04-29T08:57:54.152Z,37.47
2023-04-29T09:00:22.424Z,37.04
2023-04-29T09:02:50.351Z,37.50
2023-04-29T09:05:18.233Z,37.50
2023-04-29T09:07:46.140Z,36.99
2023-04-29T09:10:14.977Z,36.90
2023-04-29T09:12:42.762Z,37.11
2023-04-29T09:15:10.573Z,37.05
2023-04-29T09:17:38.419Z,37.38
2023-04-29T09:20:06.470Z,36.88
2023-04-29T09:22:34.300Z,37.07
2023-04-29T09:25:02.078Z,37.05
2023-04-29T09:27:30.192Z,36.93
2023-04-29T09:29:57.974Z,37.05
2023-04-29T09:32:27.121Z,37.46
2023-04-29T09:34:55.253Z,36.90
2023-04-29T09:37:23.136Z,36.81
2023-04-29T09:39:51.027Z,36.93
2023-04-29T09:42:18.873Z,36.76
2023-04-29T09:44:46.737Z,36.73
2023-04-29T09:47:14.923Z,36.57
2023-04-29T09:49:42.757Z,36.52
2023-04-29T09:52:11.050Z,36.40
2023-04-29T09:54:39.157Z,36.70
2023-04-29T09:57:07.302Z,36.91
2023-04-29T09:59:36.298Z,36.90
2023-04-29T10:02:07.587Z,36.65
2023-04-29T10:04:35.850Z,36.87
2023-04-29T10:07:04.480Z,37.05
2023-04-29T10:09:32.329Z,36.93
2023-04-29T10:12:00.207Z,36.57
2023-04-29T10:14:28.227Z,36.84
2023-04-29T10:16:56.088Z,36.99
2023-04-29T10:19:23.910Z,36.64
2023-04-29T10:21:52.067Z,36.97
2023-04-29T10:24:20.587Z,37.00
2023-04-29T10:26:48.425Z,36.73
2023-04-29T10:29:16.218Z,36.71
2023-04-29T10:31:44.149Z,36.69
2023-04-29T10:34:13.010Z,36.66
2023-04-29T10:36:41.328Z,36.78
2023-04-29T10:39:09.676Z,36.82
2023-04-29T10:41:37.593Z,36.63
2023-04-29T10:44:05.624Z,36.75
2023-04-29T10:46:33.742Z,36.50
2023-04-29T10:49:01.562Z,37.02
2023-04-29T10:51:29.675Z,36.92
2023-04-29T10:53:57.491Z,37.13
2023-04-29T10:56:25.353Z,37.62
2023-04-29T10:58:53.370Z,37.37
2023-04-29T11:01:21.227Z,37.73
2023-04-29T11:03:49.433Z,38.00
2023-04-29T11:06:17.386Z,37.54
2023-04-29T11:08:45.186Z,37.95
2023-04-29T11:11:13.086Z,38.21
2023-04-29T11:13:40.899Z,37.78
2023-04-29T11:16:08.910Z,38.09
2023-04-29T11:18:36.756Z,38.06
2023-04-29T11:21:04.605Z,37.97
2023-04-29T11:23:33.008Z,38.15
2023-04-29T11:26:00.997Z,38.21
2023-04-29T11:28:28.830Z,37.96
2023-04-29T11:30:56.971Z,38.11
2023-04-29T11:33:24.872Z,37.90
2023-04-29T11:35:52.671Z,38.06
2023-04-29T11:38:20.754Z,38.26
2023-04-29T11:40:48.597Z,38.97
2023-04-29T11:43:16.458Z,39.34
2023-04-29T11:45:44.302Z,39.88
2023-04-29T11:48:12.224Z,39.66
2023-04-29T11:50:40.179Z,39.73
2023-04-29T11:53:08.055Z,39.69
2023-04-29T11:55:36.213Z,39.86
2023-04-29T11:58:04.048Z,40.30
2023-04-29T12:00:31.849Z,39.90
2023-04-29T12:03:00.095Z,40.27
2023-04-29T12:05:27.992Z,40.06
2023-04-29T12:07:56.035Z,40.21
2023-04-29T12:10:23.868Z,40.35
2023-04-29T12:12:51.700Z,40.60
2023-04-29T12:15:19.549Z,40.54
2023-04-29T12:17:47.526Z,40.59
2023-04-29T12:20:15.739Z,40.13
2023-04-29T12:22:44.275Z,39.50
2023-04-29T12:25:12.289Z,38.92
2023-04-29T12:27:40.135Z,37.56
2023-04-29T12:30:08.309Z,37.51
2023-04-29T12:32:36.965Z,37.41
2023-04-29T12:35:04.883Z,36.86
2023-04-29T12:37:32.850Z,37.30
2023-04-29T12:40:00.654Z,37.25
2023-04-29T12:42:28.598Z,36.63
2023-04-29T12:44:56.661Z,36.96
2023-04-29T12:47:24.624Z,36.42
2023-04-29T12:49:52.462Z,36.13
2023-04-29T12:52:20.330Z,36.70
2023-04-29T12:54:48.355Z,36.80
2023-04-29T12:57:16.661Z,36.43
2023-04-29T12:59:44.673Z,36.92
2023-04-29T13:02:12.620Z,36.61
2023-04-29T13:04:40.566Z,36.66
2023-04-29T13:07:08.629Z,37.15
2023-04-29T13:09:38.241Z,37.10
2023-04-29T13:12:09.520Z,37.15
2023-04-29T13:14:37.950Z,37.20
2023-04-29T13:17:06.465Z,37.55
2023-04-29T13:19:48.167Z,37.64
2023-04-29T13:22:18.751Z,37.10
2023-04-29T13:24:46.806Z,37.74
2023-04-29T13:27:14.782Z,37.87
2023-04-29T13:29:42.632Z,37.81
2023-04-29T13:32:10.567Z,37.75
2023-04-29T13:34:38.415Z,38.11
2023-04-29T13:37:06.308Z,37.80
2023-04-29T13:39:37.874Z,37.75
2023-04-29T13:42:06.562Z,38.02
2023-04-29T13:44:48.167Z,38.28
2023-04-29T13:47:24.672Z,38.06
2023-04-29T13:50:22.567Z,37.94
2023-04-29T14:00:31.822Z,37.92
2023-04-29T14:03:03.677Z,38.12
2023-04-29T14:05:31.849Z,37.86
2023-04-29T14:08:00.189Z,37.89
2023-04-29T14:10:28.427Z,37.67
2023-04-29T14:12:56.207Z,37.48
2023-04-29T14:15:24.443Z,36.95
2023-04-29T14:17:53.632Z,37.03
2023-04-29T14:20:22.453Z,36.97
2023-04-29T14:25:18.546Z,37.08
2023-04-29T14:27:46.393Z,37.07
2023-04-29T14:30:14.233Z,36.54
2023-04-29T14:32:42.184Z,36.78
2023-04-29T14:35:10.228Z,37.02
2023-04-29T14:37:38.147Z,36.87
2023-04-29T14:40:06.416Z,36.71
2023-04-29T14:42:34.240Z,36.67
2023-04-29T14:45:02.075Z,37.24
2023-04-29T14:47:30.220Z,36.62
2023-04-29T14:49:58.045Z,36.91
2023-04-29T14:52:25.895Z,36.64
2023-04-29T14:54:54.042Z,36.68
2023-04-29T14:57:22.123Z,37.08
2023-04-29T14:59:50.226Z,37.45
2023-04-29T15:02:18.261Z,37.78
2023-04-29T15:04:46.412Z,37.74
2023-04-29T15:07:14.537Z,38.05
2023-04-29T15:09:42.368Z,38.69
2023-04-29T15:12:10.270Z,38.53
2023-04-29T15:14:38.125Z,37.79
2023-04-29T15:17:05.974Z,38.08
2023-04-29T15:19:35.797Z,38.00
2023-04-29T15:22:04.183Z,37.85
2023-04-29T15:24:32.262Z,37.98
2023-04-29T15:27:00.182Z,37.92
2023-04-29T15:29:28.143Z,38.00
2023-04-29T15:31:55.991Z,38.35
2023-04-29T15:34:24.030Z,37.93
2023-04-29T15:36:52.096Z,38.39
2023-04-29T15:39:19.946Z,37.92
2023-04-29T15:41:48.313Z,38.13
2023-04-29T15:44:16.113Z,37.88
2023-04-29T15:46:43.958Z,38.01
2023-04-29T15:49:12.413Z,38.19
2023-04-29T15:51:40.481Z,38.36
2023-04-29T15:54:08.446Z,38.46
2023-04-29T15:56:36.256Z,38.32
2023-04-29T15:59:04.215Z,38.20
2023-04-29T16:01:33.005Z,38.05
2023-04-29T16:04:02.257Z,38.64
2023-04-29T16:06:30.259Z,38.27
2023-04-29T16:08:58.108Z,38.45
2023-04-29T16:11:26.119Z,38.38
2023-04-29T16:13:54.044Z,38.53
2023-04-29T16:16:21.927Z,38.66
2023-04-29T16:18:49.703Z,39.15
2023-04-29T16:21:17.571Z,38.90
2023-04-29T16:23:45.567Z,38.91
2023-04-29T16:26:13.734Z,38.71
2023-04-29T16:28:41.809Z,38.69
2023-04-29T16:31:10.048Z,39.06
2023-04-29T16:33:37.907Z,39.31
2023-04-29T16:36:05.822Z,40.06
2023-04-29T16:38:33.601Z,39.82
2023-04-29T16:41:01.426Z,40.38
2023-04-29T16:43:29.233Z,40.95
2023-04-29T16:45:57.118Z,40.76
2023-04-29T16:48:24.994Z,40.68
2023-04-29T16:50:52.920Z,41.10
2023-04-29T16:53:20.762Z,41.00
2023-04-29T16:55:49.516Z,41.32
2023-04-29T16:58:18.057Z,41.70
2023-04-29T17:00:45.900Z,41.55
2023-04-29T17:03:13.730Z,40.74
2023-04-29T17:05:41.573Z,40.82
2023-04-29T17:08:09.490Z,40.65
2023-04-29T17:10:37.282Z,40.72
2023-04-29T17:13:05.133Z,40.57
2023-04-29T17:15:33.169Z,40.16
2023-04-29T17:18:01.146Z,39.97
2023-04-29T17:20:29.377Z,40.50
2023-04-29T17:22:57.175Z,39.77
2023-04-29T17:25:24.956Z,40.86
2023-04-29T17:27:52.873Z,39.66
2023-04-29T17:30:20.767Z,39.82
2023-04-29T17:32:49.919Z,39.53
2023-04-29T17:35:18.015Z,39.50
2023-04-29T17:37:46.563Z,38.81
2023-04-29T17:40:14.392Z,38.94
2023-04-29T17:42:42.412Z,38.13
2023-04-29T17:45:10.222Z,38.78
2023-04-29T17:50:05.909Z,38.68
2023-04-29T17:52:33.783Z,38.59
2023-04-29T17:55:01.661Z,38.23
2023-04-29T17:57:30.035Z,38.77
2023-04-29T17:59:58.053Z,38.56
2023-04-29T18:02:26.142Z,38.41
2023-04-29T18:04:54.212Z,38.19
2023-04-29T18:07:22.078Z,38.95
2023-04-29T18:09:49.890Z,38.96
2023-04-29T18:12:17.680Z,38.69
2023-04-29T18:14:46.727Z,38.58
2023-04-29T18:17:14.507Z,38.83
2023-04-29T18:19:42.356Z,38.69
2023-04-29T18:22:10.157Z,39.18
2023-04-29T18:24:38.002Z,39.14
2023-04-29T18:27:06.196Z,39.07
2023-04-29T18:29:36.349Z,38.96
2023-04-29T18:32:06.387Z,38.52
2023-04-29T18:34:35.901Z,38.63
2023-04-29T18:37:04.113Z,38.81
2023-04-29T18:39:32.257Z,38.49
2023-04-29T18:42:00.158Z,38.86
2023-04-29T18:44:32.375Z,38.68
2023-04-29T18:47:00.149Z,38.54
2023-04-29T18:49:28.037Z,38.87
2023-04-29T18:51:56.142Z,38.71
2023-04-29T18:54:24.080Z,38.74
2023-04-29T18:56:52.023Z,38.91
2023-04-29T18:59:20.041Z,38.86
2023-04-29T19:01:48.133Z,38.90
2023-04-29T19:04:16.360Z,38.69
2023-04-29T19:06:44.536Z,38.71
2023-04-29T19:09:13.775Z,38.77
2023-04-29T19:11:41.673Z,38.71
2023-04-29T19:14:09.456Z,38.96
2023-04-29T19:16:37.521Z,38.73
2023-04-29T19:19:05.495Z,38.65
2023-04-29T19:21:33.577Z,38.61
2023-04-29T19:24:01.468Z,38.86
2023-04-29T19:26:29.931Z,38.71
2023-04-29T19:28:59.843Z,38.65
2023-04-29T19:31:27.910Z,39.12
2023-04-29T19:33:55.965Z,38.67
2023-04-29T19:36:23.960Z,38.88
2023-04-29T19:38:52.140Z,38.83
2023-04-29T19:41:20.875Z,38.66
2023-04-29T19:43:48.691Z,38.64
2023-04-29T19:46:16.514Z,38.70
2023-04-29T19:48:44.315Z,38.50
2023-04-29T19:51:12.133Z,38.67
2023-04-29T19:53:41.016Z,38.58
2023-04-29T19:56:09.292Z,39.04
2023-04-29T19:58:37.093Z,38.45
2023-04-29T20:01:05.053Z,38.63
2023-04-29T20:03:32.946Z,39.00
2023-04-29T20:06:01.020Z,38.78
2023-04-29T20:08:28.912Z,38.55
2023-04-29T20:10:57.062Z,39.14
2023-04-29T20:13:24.988Z,39.83
2023-04-29T20:15:54.243Z,40.16
2023-04-29T20:18:22.182Z,40.40
2023-04-29T20:20:50.784Z,39.64
2023-04-29T20:23:18.643Z,39.76
2023-04-29T20:25:46.671Z,39.79
2023-04-29T20:28:14.598Z,39.28
2023-04-29T20:30:42.756Z,39.58
2023-04-29T20:33:10.693Z,39.48
2023-04-29T20:35:38.698Z,39.51
2023-04-29T20:38:07.409Z,38.88
2023-04-29T20:40:35.507Z,39.08
2023-04-29T20:43:04.643Z,39.36
2023-04-29T20:45:32.492Z,39.16
2023-04-29T20:48:00.772Z,39.36
2023-04-29T20:50:28.643Z,39.04
2023-04-29T20:52:56.879Z,39.07
2023-04-29T20:55:24.812Z,39.04
2023-04-29T20:57:52.718Z,39.33
2023-04-29T21:00:23.678Z,38.77
2023-04-29T21:02:51.851Z,39.11
2023-04-29T21:05:19.747Z,39.16
2023-04-29T21:07:49.333Z,39.04
2023-04-29T21:10:18.243Z,38.78
2023-04-29T21:12:46.121Z,39.19
2023-04-29T21:15:14.090Z,39.23
2023-04-29T21:17:42.159Z,39.42
2023-04-29T21:20:10.425Z,39.26
2023-04-29T21:22:39.269Z,38.94
2023-04-29T21:25:07.540Z,38.96
2023-04-29T21:27:36.086Z,38.90
2023-04-29T21:30:04.939Z,38.82
2023-04-29T21:32:33.969Z,39.02
2023-04-29T21:35:02.403Z,38.53
2023-04-29T21:37:30.368Z,38.79
2023-04-29T21:40:00.409Z,38.81
2023-04-29T21:42:28.338Z,38.79
2023-04-29T21:44:56.185Z,38.71
2023-04-29T21:47:24.061Z,38.67
2023-04-29T21:49:52.340Z,38.65
2023-04-29T21:52:20.351Z,38.57
2023-04-29T21:54:48.241Z,38.91
2023-04-29T21:57:16.185Z,38.86
2023-04-29T21:59:44.500Z,38.85
2023-04-29T22:02:22.234Z,38.83
2023-04-29T22:04:50.265Z,38.44
2023-04-29T22:07:18.189Z,38.45
2023-04-29T22:09:49.724Z,38.87
2023-04-29T22:12:18.061Z,38.67
2023-04-29T22:14:45.923Z,38.53
2023-04-29T22:17:13.769Z,38.93
2023-04-29T22:19:41.782Z,38.58
2023-04-29T22:22:09.945Z,38.96
2023-04-29T22:24:37.827Z,38.76
2023-04-29T22:27:05.685Z,38.56
2023-04-29T22:29:33.526Z,38.73
2023-04-29T22:32:01.360Z,38.88
2023-04-29T22:34:29.289Z,38.35
2023-04-29T22:36:57.736Z,38.65
2023-04-29T22:39:25.530Z,38.43
2023-04-29T22:41:53.329Z,38.54
2023-04-29T22:44:21.217Z,38.82
2023-04-29T22:46:49.051Z,38.86
2023-04-29T22:49:16.954Z,38.65
2023-04-29T22:51:44.800Z,38.32
2023-04-29T22:54:12.610Z,38.25
2023-04-29T22:56:40.433Z,38.65
2023-04-29T22:59:08.261Z,38.59
2023-04-29T23:01:36.201Z,38.40
2023-04-29T23:04:04.057Z,38.47
2023-04-29T23:06:32.279Z,38.59
2023-04-29T23:09:00.151Z,38.67
2023-04-29T23:11:27.961Z,38.05
2023-04-29T23:13:55.842Z,38.64
2023-04-29T23:16:23.681Z,38.27
2023-04-29T23:18:51.485Z,38.17
2023-04-29T23:21:19.337Z,38.19
2023-04-29T23:23:47.124Z,38.25
2023-04-29T23:26:14.900Z,38.17
2023-04-29T23:28:42.814Z,38.60
2023-04-29T23:31:10.658Z,38.43
2023-04-29T23:33:38.623Z,38.42
2023-04-29T23:36:06.688Z,38.81
2023-04-29T23:38:34.537Z,38.67
2023-04-29T23:41:02.413Z,38.57
2023-04-29T23:43:30.188Z,38.31
2023-04-29T23:45:58.145Z,38.58
2023-04-29T23:48:26.074Z,38.51
2023-04-29T23:50:53.867Z,38.56
2023-04-29T23:53:21.728Z,38.81
2023-04-29T23:55:49.640Z,38.41
2023-04-29T23:58:17.464Z,38.55
